Time;durP1;ratioP1;P1;durP2;ratioP2;P2;SDS_P1;SDS_P2;PMS_P1;PMS_P2;Temp;Humidity;BMP_temperature;BMP_pressure;BME280_temperature;BME280_humidity;BME280_pressure;Samples;Min_cycle;Max_cycle;Signal;HPM_P1;HPM_P2
2024/02/14 00:01:56;;;;;;;3.33;1.90;;;;;;;-0.31;100.00;98139.69;6082954;29;20236;-93
2024/02/14 00:04:59;;;;;;;1.93;1.63;;;;;;;-0.83;100.00;98044.94;6077829;29;20265;-92
2024/02/14 00:08:01;;;;;;;6.90;1.73;;;;;;;-0.38;100.00;98145.75;6066968;29;20283;-91
2024/02/14 00:11:03;;;;;;;3.70;1.80;;;;;;;0.34;100.00;98263.84;6061939;29;20661;-92
2024/02/14 00:14:07;;;;;;;3.67;1.80;;;;;;;-1.13;100.00;98044.53;6070990;29;20568;-92
2024/02/14 00:17:10;;;;;;;2.57;1.80;;;;;;;-0.13;100.00;98209.44;6062889;29;20212;-91
2024/02/14 00:20:12;;;;;;;5.93;2.53;;;;;;;-0.83;100.00;98113.75;6059798;29;20203;-91
2024/02/14 00:23:14;;;;;;;3.10;1.53;;;;;;;-1.04;100.00;98084.56;6065242;29;20212;-92
2024/02/14 00:26:16;;;;;;;4.90;1.67;;;;;;;-0.74;100.00;98150.38;6052484;29;20402;-93
2024/02/14 00:29:19;;;;;;;6.63;2.37;;;;;;;0.13;100.00;98278.25;6075892;29;20211;-92
2024/02/14 00:32:21;;;;;;;3.53;1.63;;;;;;;-0.37;100.00;98160.47;6061101;29;20205;-92
2024/02/14 00:35:24;;;;;;;6.23;1.60;;;;;;;-0.36;100.00;98236.22;6065637;29;20200;-92
2024/02/14 00:38:26;;;;;;;5.13;1.50;;;;;;;-1.33;100.00;98090.19;6062727;29;20204;-91
2024/02/14 00:41:29;;;;;;;4.03;1.70;;;;;;;-1.24;100.00;98104.09;6064421;29;20227;-92
2024/02/14 00:44:31;;;;;;;2.37;1.60;;;;;;;-1.28;100.00;98092.31;6052729;29;20217;-91
2024/02/14 00:47:34;;;;;;;4.47;2.00;;;;;;;-0.53;100.00;98256.28;6078296;29;20267;-92
2024/02/14 00:50:37;;;;;;;5.57;1.77;;;;;;;-0.59;100.00;98243.84;6072478;29;20461;-92
2024/02/14 00:53:40;;;;;;;2.47;1.60;;;;;;;-0.91;100.00;98145.09;6081494;29;20209;-92
2024/02/14 00:56:42;;;;;;;3.47;1.87;;;;;;;-0.52;100.00;98225.69;6064830;29;20248;-92
2024/02/14 00:59:44;;;;;;;3.47;2.20;;;;;;;-0.58;100.00;98265.59;6085631;29;20404;-92
2024/02/14 01:02:46;;;;;;;2.30;1.70;;;;;;;-1.01;100.00;98198.50;6107493;29;20242;-92
2024/02/14 01:05:48;;;;;;;4.23;1.47;;;;;;;-1.40;100.00;98123.13;6100020;29;20580;-92
2024/02/14 01:08:51;;;;;;;7.70;2.23;;;;;;;-1.07;100.00;98203.38;6096022;29;20605;-92
2024/02/14 01:11:53;;;;;;;3.87;2.23;;;;;;;-0.41;100.00;98298.69;6096091;29;20687;-93
2024/02/14 01:14:55;;;;;;;3.03;1.60;;;;;;;-1.43;100.00;98188.75;6106241;29;20231;-92
2024/02/14 01:17:57;;;;;;;3.00;1.40;;;;;;;-2.23;100.00;98020.94;6090549;29;20202;-93
2024/02/14 01:21:00;;;;;;;5.73;2.00;;;;;;;-1.06;100.00;98244.22;6087861;29;20240;-91
2024/02/14 01:24:05;;;;;;;5.50;2.10;;;;;;;-0.87;100.00;98253.66;6096900;29;20196;-92
2024/02/14 01:27:08;;;;;;;6.17;2.47;;;;;;;-0.93;100.00;98253.47;6091450;29;20894;-93
2024/02/14 01:30:11;;;;;;;3.20;1.80;;;;;;;-0.76;100.00;98231.63;6101807;29;20224;-93
2024/02/14 01:33:13;;;;;;;3.70;2.13;;;;;;;-0.62;100.00;98257.22;6080766;29;20376;-93
2024/02/14 01:36:16;;;;;;;4.13;1.90;;;;;;;-1.99;100.00;98090.78;6093559;29;20739;-94
2024/02/14 01:39:18;;;;;;;4.80;2.10;;;;;;;-2.84;100.00;97956.59;6093102;29;20188;-94
2024/02/14 01:42:20;;;;;;;5.17;1.77;;;;;;;-1.06;100.00;98275.59;6084406;29;20215;-94
2024/02/14 01:45:23;;;;;;;6.33;2.00;;;;;;;-2.09;100.00;98106.53;6119066;29;20223;-92
2024/02/14 01:48:25;;;;;;;4.83;2.40;;;;;;;-2.16;100.00;98085.44;6092107;29;20584;-93
2024/02/14 01:51:28;;;;;;;3.67;1.70;;;;;;;-1.25;100.00;98210.44;6093014;29;20618;-92
2024/02/14 01:54:31;;;;;;;3.33;2.00;;;;;;;-1.78;100.00;98137.41;6086685;29;20200;-94
2024/02/14 01:57:34;;;;;;;4.73;1.80;;;;;;;-1.74;100.00;98110.03;6099812;29;20211;-92
2024/02/14 02:00:37;;;;;;;6.00;2.23;;;;;;;-2.68;100.00;97986.22;6093467;28;20223;-93
2024/02/14 02:03:45;;;;;;;2.07;1.70;;;;;;;-0.63;100.00;98276.50;6090023;29;20201;-94
2024/02/14 02:06:47;;;;;;;5.93;2.03;;;;;;;-1.34;100.00;98237.50;6099068;29;20597;-93
2024/02/14 02:09:50;;;;;;;6.77;2.00;;;;;;;-1.86;100.00;98172.16;6117044;29;20736;-93
2024/02/14 02:13:03;;;;;;;9.33;2.53;;;;;;;-1.92;100.00;98159.66;6110577;29;20714;-92
2024/02/14 02:16:05;;;;;;;3.67;1.90;;;;;;;-1.19;100.00;98251.66;6098931;29;20212;-92
2024/02/14 02:19:09;;;;;;;3.50;1.73;;;;;;;-2.96;100.00;97988.06;6082253;29;20200;-92
2024/02/14 02:22:11;;;;;;;5.60;2.00;;;;;;;-1.28;100.00;98233.44;6083247;29;20200;-93
2024/02/14 02:25:14;;;;;;;3.60;1.33;;;;;;;-2.42;100.00;98046.22;6106253;29;20712;-91
2024/02/14 02:28:16;;;;;;;2.40;1.60;;;;;;;-1.64;100.00;98199.56;6078614;29;20718;-91
2024/02/14 02:31:19;;;;;;;5.27;1.60;;;;;;;-1.15;100.00;98265.25;6114500;29;20200;-93
2024/02/14 02:34:22;;;;;;;5.27;1.90;;;;;;;-1.16;100.00;98279.28;6081112;29;20591;-92
2024/02/14 02:37:29;;;;;;;3.67;1.53;;;;;;;-2.43;100.00;98106.38;6095414;29;20199;-92
2024/02/14 02:40:31;;;;;;;3.53;1.80;;;;;;;-1.01;100.00;98272.53;6077849;29;20208;-93
2024/02/14 02:43:34;;;;;;;1.70;1.30;;;;;;;-2.08;100.00;98142.91;6075014;29;20208;-93
2024/02/14 02:46:36;;;;;;;2.97;2.07;;;;;;;-1.90;100.00;98202.13;6097120;29;20211;-92
2024/02/14 02:49:38;;;;;;;1.73;1.13;;;;;;;-1.78;100.00;98160.94;6105287;29;20234;-94
2024/02/14 02:52:43;;;;;;;2.27;1.30;;;;;;;-3.29;100.00;97960.91;6094089;29;20209;-92
2024/02/14 02:55:46;;;;;;;3.53;1.50;;;;;;;-3.22;100.00;97961.13;6114346;29;20212;-94
2024/02/14 02:58:49;;;;;;;2.30;1.70;;;;;;;-2.30;100.00;98163.44;6112420;29;20686;-94
2024/02/14 03:01:52;;;;;;;2.83;1.47;;;;;;;-3.32;100.00;97960.38;6115027;29;20235;-92
2024/02/14 03:04:54;;;;;;;2.80;1.40;;;;;;;-3.60;100.00;97981.22;6097042;29;20270;-93
2024/02/14 03:07:58;;;;;;;4.37;1.33;;;;;;;-1.51;100.00;98269.72;6099445;29;20207;-92
2024/02/14 03:11:05;;;;;;;1.50;1.17;;;;;;;-3.96;100.00;97939.47;6100726;29;20219;-90
2024/02/14 03:14:10;;;;;;;3.93;1.30;;;;;;;-3.63;100.00;97994.53;6103016;29;20212;-93
2024/02/14 03:17:13;;;;;;;2.43;1.53;;;;;;;-3.78;100.00;97943.91;6101811;29;20197;-93
2024/02/14 03:20:16;;;;;;;2.87;1.30;;;;;;;-3.57;100.00;97915.03;6089021;29;20219;-92
2024/02/14 03:23:20;;;;;;;2.70;1.30;;;;;;;-2.86;100.00;98090.50;6089787;29;20274;-92
2024/02/14 03:26:23;;;;;;;2.33;0.93;;;;;;;-3.20;100.00;98046.00;6104831;29;20630;-93
2024/02/14 03:29:26;;;;;;;1.93;1.17;;;;;;;-3.07;100.00;98018.75;6111536;29;20215;-93
2024/02/14 03:32:30;;;;;;;2.27;1.03;;;;;;;-1.70;100.00;98249.78;6077698;29;20244;-93
2024/02/14 03:35:33;;;;;;;1.63;1.50;;;;;;;-3.60;100.00;97981.22;6093610;29;20351;-92
2024/02/14 03:38:35;;;;;;;1.90;1.10;;;;;;;-2.43;100.00;98192.47;6089008;29;20670;-91
2024/02/14 03:41:37;;;;;;;2.37;1.47;;;;;;;-2.08;100.00;98226.44;6084233;29;20211;-91
2024/02/14 03:44:40;;;;;;;5.47;1.67;;;;;;;-2.37;100.00;98177.03;6100052;29;20239;-91
2024/02/14 03:47:42;;;;;;;3.80;1.37;;;;;;;-2.18;100.00;98219.63;6088167;29;20626;-91
2024/02/14 03:50:45;;;;;;;3.70;1.60;;;;;;;-2.73;100.00;98129.25;6100766;29;20219;-91
2024/02/14 03:53:47;;;;;;;2.00;1.10;;;;;;;-2.45;100.00;98176.16;6090606;29;20192;-91
2024/02/14 03:56:51;;;;;;;2.00;1.20;;;;;;;-2.64;100.00;98098.88;6081692;29;20213;-91
2024/02/14 03:59:53;;;;;;;1.43;1.20;;;;;;;-1.92;100.00;98254.50;6095839;29;20188;-91
2024/02/14 04:02:59;;;;;;;1.87;1.17;;;;;;;-2.87;100.00;98142.75;6086519;29;20203;-94
2024/02/14 04:06:02;;;;;;;3.50;1.27;;;;;;;-2.67;100.00;98152.13;6109264;29;20278;-94
2024/02/14 04:09:04;;;;;;;3.17;1.30;;;;;;;-3.02;100.00;98105.94;6097468;29;20750;-93
2024/02/14 04:12:07;;;;;;;4.13;1.20;;;;;;;-2.08;100.00;98293.47;6096815;29;20204;-94
2024/02/14 04:15:09;;;;;;;4.43;1.17;;;;;;;-2.64;100.00;98192.75;6091504;29;20207;-93
2024/02/14 04:18:14;;;;;;;4.40;1.10;;;;;;;-1.93;100.00;98293.78;6101115;29;20206;-92
2024/02/14 04:21:16;;;;;;;2.83;1.40;;;;;;;-2.93;100.00;98161.59;6099615;29;20457;-93
2024/02/14 04:24:19;;;;;;;2.43;1.43;;;;;;;-3.77;100.00;98000.22;6095504;29;20223;-94
2024/02/14 04:27:21;;;;;;;4.00;1.20;;;;;;;-3.32;100.00;98090.59;6106342;29;20206;-93
2024/02/14 04:30:24;;;;;;;5.90;1.80;;;;;;;-1.82;100.00;98317.09;6087961;29;20226;-94
2024/02/14 04:33:26;;;;;;;4.53;1.30;;;;;;;-3.13;100.00;98106.16;6113316;29;20214;-92
2024/02/14 04:36:29;;;;;;;3.27;1.17;;;;;;;-3.20;100.00;98089.44;6086849;29;20259;-93
2024/02/14 04:39:31;;;;;;;3.90;1.43;;;;;;;-1.51;100.00;98321.97;6098571;29;20294;-93
2024/02/14 04:42:34;;;;;;;4.00;1.70;;;;;;;-1.93;100.00;98258.06;6075362;29;20691;-93
2024/02/14 04:45:36;;;;;;;6.83;1.90;;;;;;;-1.68;100.00;98279.19;6079253;29;20677;-92
2024/02/14 04:48:39;;;;;;;1.67;1.30;;;;;;;-2.52;100.00;98115.91;6083430;29;20195;-91
2024/02/14 04:51:41;;;;;;;3.27;1.10;;;;;;;-2.18;100.00;98141.34;6091723;29;20223;-94
2024/02/14 04:54:44;;;;;;;1.73;1.40;;;;;;;-1.61;100.00;98296.75;6083152;29;20666;-93
2024/02/14 04:57:46;;;;;;;2.73;1.47;;;;;;;-1.85;100.00;98268.59;6100569;29;20212;-94
2024/02/14 05:00:49;;;;;;;4.87;1.37;;;;;;;-2.62;100.00;98139.47;6069246;29;20233;-93
2024/02/14 05:03:51;;;;;;;5.77;2.20;;;;;;;-2.07;100.00;98227.25;6088063;29;20327;-93
2024/02/14 05:06:53;;;;;;;3.20;2.63;;;;;;;-1.32;100.00;98286.03;6074750;29;20217;-93
2024/02/14 05:10:00;;;;;;;2.97;1.47;;;;;;;-1.15;100.00;98314.91;6077672;29;20209;-93
2024/02/14 05:13:02;;;;;;;1.60;1.10;;;;;;;-1.37;100.00;98317.03;6061891;29;20208;-91
2024/02/14 05:16:04;;;;;;;2.27;1.23;;;;;;;-2.45;100.00;98179.59;6049713;29;20204;-91
2024/02/14 05:19:07;;;;;;;5.17;1.77;;;;;;;-3.08;100.00;98075.25;6068614;29;20233;-90
2024/02/14 05:22:09;;;;;;;3.03;1.20;;;;;;;-1.67;100.00;98291.31;6048281;29;20205;-91
2024/02/14 05:25:11;;;;;;;2.03;1.30;;;;;;;-2.42;100.00;98196.72;6078430;29;20298;-91
2024/02/14 05:28:14;;;;;;;2.20;1.03;;;;;;;-3.06;100.00;98031.63;6064131;29;20220;-91
2024/02/14 05:31:17;;;;;;;1.83;1.00;;;;;;;-2.24;100.00;98210.63;6061305;29;20223;-90
2024/02/14 05:34:19;;;;;;;1.63;1.20;;;;;;;-2.04;100.00;98247.03;6081919;29;20563;-91
2024/02/14 05:37:21;;;;;;;3.40;1.33;;;;;;;-2.64;100.00;98177.09;6090009;29;20203;-91
2024/02/14 05:40:24;;;;;;;2.90;1.03;;;;;;;-2.23;100.00;98219.25;6088946;29;20193;-90
2024/02/14 05:43:26;;;;;;;1.03;0.90;;;;;;;-2.23;100.00;98256.63;6088615;29;20208;-90
2024/02/14 05:46:28;;;;;;;2.17;1.30;;;;;;;-2.37;100.00;98184.06;6062437;29;20216;-90
2024/02/14 05:49:30;;;;;;;1.47;1.03;;;;;;;-2.72;100.00;98164.78;6096833;29;20220;-90
2024/02/14 05:52:32;;;;;;;1.80;1.20;;;;;;;-2.29;100.00;98235.50;6082371;29;20698;-91
2024/02/14 05:55:34;;;;;;;4.63;1.20;;;;;;;-1.65;100.00;98339.78;6079436;29;20214;-90
2024/02/14 05:58:37;;;;;;;1.60;1.13;;;;;;;-2.62;100.00;98203.84;6052608;29;20586;-90
2024/02/14 06:01:39;;;;;;;1.40;1.20;;;;;;;-2.99;100.00;98123.09;6077953;29;20243;-90
2024/02/14 06:04:42;;;;;;;4.53;1.20;;;;;;;-1.91;100.00;98310.97;6077567;29;20203;-90
2024/02/14 06:07:45;;;;;;;2.03;1.10;;;;;;;-1.93;100.00;98270.28;6109811;29;20208;-89
2024/02/14 06:10:47;;;;;;;1.30;1.10;;;;;;;-1.21;100.00;98352.94;6094767;29;20285;-89
2024/02/14 06:17:14;;;;;;;6.77;2.83;;;;;;;-1.70;100.00;98342.03;6196804;28;20217;-59
2024/02/14 06:20:17;;;;;;;2.40;1.30;;;;;;;-1.43;100.00;98361.22;6200798;28;20197;-57
2024/02/14 06:23:20;;;;;;;3.27;2.00;;;;;;;-1.56;100.00;98362.41;6206710;28;20223;-58
2024/02/14 06:26:22;;;;;;;3.73;1.40;;;;;;;-1.56;100.00;98361.59;6200470;28;20202;-57
2024/02/14 06:29:24;;;;;;;2.40;1.20;;;;;;;-1.44;100.00;98368.25;6198252;28;20192;-57
2024/02/14 06:32:27;;;;;;;2.87;1.07;;;;;;;-1.45;100.00;98374.44;6204781;28;20204;-58
2024/02/14 06:35:30;;;;;;;5.20;1.40;;;;;;;-1.42;100.00;98373.34;6210975;28;20200;-56
2024/02/14 06:38:33;;;;;;;1.90;0.90;;;;;;;-1.36;100.00;98372.75;6184730;28;20206;-58
2024/02/14 06:41:35;;;;;;;2.03;1.17;;;;;;;-1.33;100.00;98377.66;6200806;28;20192;-58
2024/02/14 06:44:37;;;;;;;3.70;1.03;;;;;;;-1.38;100.00;98383.34;6207392;28;20201;-58
2024/02/14 06:47:39;;;;;;;3.33;1.10;;;;;;;-1.25;100.00;98389.97;6210948;28;20277;-57
2024/02/14 06:50:42;;;;;;;3.13;1.10;;;;;;;-1.24;100.00;98394.22;6202339;28;20877;-58
2024/02/14 06:53:44;;;;;;;2.93;0.90;;;;;;;-1.15;100.00;98385.50;6197513;28;20197;-58
2024/02/14 06:56:46;;;;;;;2.57;1.20;;;;;;;-1.31;100.00;98379.16;6205374;28;20201;-58
2024/02/14 06:59:48;;;;;;;3.53;1.30;;;;;;;-1.22;100.00;98385.28;6208537;28;20647;-56
2024/02/14 07:02:51;;;;;;;4.10;1.10;;;;;;;-1.39;100.00;98370.41;6203153;28;20701;-56
2024/02/14 07:05:53;;;;;;;6.10;1.10;;;;;;;-1.24;100.00;98392.44;6200879;28;20212;-58
2024/02/14 07:08:55;;;;;;;3.80;0.70;;;;;;;-1.26;100.00;98383.94;6213287;28;20276;-59
2024/02/14 07:11:58;;;;;;;3.47;1.07;;;;;;;-1.15;100.00;98391.53;6205791;28;20686;-57
2024/02/14 07:15:00;;;;;;;2.73;0.80;;;;;;;-0.93;100.00;98398.13;6200797;28;20748;-58
2024/02/14 07:18:03;;;;;;;3.27;1.00;;;;;;;-0.93;100.00;98395.50;6183450;28;20258;-58
2024/02/14 07:21:06;;;;;;;1.07;0.97;;;;;;;-0.91;100.00;98396.16;6201625;28;20251;-58
2024/02/14 07:24:08;;;;;;;2.47;1.27;;;;;;;-0.80;100.00;98393.28;6203254;28;20192;-58
2024/02/14 07:27:12;;;;;;;1.80;1.10;;;;;;;-0.71;100.00;98393.38;6197454;28;20277;-57
2024/02/14 07:30:17;;;;;;;4.73;1.00;;;;;;;-0.60;100.00;98390.50;6204972;28;20215;-58
2024/02/14 07:33:20;;;;;;;1.10;1.00;;;;;;;-0.38;100.00;98387.38;6208575;28;20208;-58
2024/02/14 07:36:22;;;;;;;1.83;0.93;;;;;;;-0.33;100.00;98392.16;6199487;28;20279;-58
2024/02/14 07:39:25;;;;;;;2.57;1.10;;;;;;;-0.23;100.00;98386.81;6195791;28;20205;-57
2024/02/14 07:42:27;;;;;;;2.77;0.90;;;;;;;-0.09;100.00;98394.91;6194218;28;20349;-58
2024/02/14 07:45:29;;;;;;;1.40;1.10;;;;;;;0.17;100.00;98391.41;6205165;28;20197;-58
2024/02/14 07:48:32;;;;;;;3.80;0.90;;;;;;;0.11;100.00;98392.84;6201557;28;20189;-58
2024/02/14 07:51:36;;;;;;;1.93;1.00;;;;;;;0.15;100.00;98396.00;6203952;28;20288;-58
2024/02/14 07:54:38;;;;;;;1.33;0.97;;;;;;;0.28;100.00;98396.34;6198986;28;20273;-58
2024/02/14 07:57:42;;;;;;;2.13;0.93;;;;;;;0.38;100.00;98404.06;6200197;28;20205;-57
2024/02/14 08:00:45;;;;;;;2.23;0.90;;;;;;;0.47;100.00;98396.06;6189352;28;20204;-58
2024/02/14 08:03:47;;;;;;;2.63;0.97;;;;;;;0.70;100.00;98396.31;6191342;28;20191;-58
2024/02/14 08:06:49;;;;;;;4.60;1.00;;;;;;;0.69;100.00;98394.66;6208793;28;20209;-58
2024/02/14 08:09:51;;;;;;;2.53;0.93;;;;;;;0.91;100.00;98406.31;6202730;28;20269;-58
2024/02/14 08:12:54;;;;;;;3.83;1.20;;;;;;;1.10;100.00;98407.00;6197446;28;20201;-59
2024/02/14 08:15:56;;;;;;;0.90;0.70;;;;;;;1.03;100.00;98394.53;6210222;28;20786;-59
2024/02/14 08:19:01;;;;;;;1.63;0.80;;;;;;;1.09;100.00;98411.44;6203420;28;20681;-59
2024/02/14 08:22:05;;;;;;;1.43;0.80;;;;;;;1.12;100.00;98418.97;6200698;28;20205;-58
2024/02/14 08:25:08;;;;;;;1.03;0.60;;;;;;;1.15;100.00;98418.63;6202568;28;20198;-58
2024/02/14 08:28:10;;;;;;;1.50;0.90;;;;;;;1.24;100.00;98409.78;6189971;28;20293;-58
2024/02/14 08:31:13;;;;;;;1.07;0.90;;;;;;;1.39;100.00;98403.88;6203662;28;20243;-59
2024/02/14 08:34:16;;;;;;;1.07;1.00;;;;;;;1.53;100.00;98405.84;6199643;28;20194;-59
2024/02/14 08:37:18;;;;;;;2.40;0.60;;;;;;;1.51;100.00;98398.09;6206675;28;20567;-60
2024/02/14 08:40:21;;;;;;;2.70;0.80;;;;;;;1.65;100.00;98403.66;6203309;28;20217;-58
2024/02/14 08:43:26;;;;;;;2.70;0.80;;;;;;;1.83;100.00;98400.84;6200723;28;20205;-59
2024/02/14 08:46:28;;;;;;;1.10;0.70;;;;;;;2.15;100.00;98392.84;6195888;28;20275;-58
2024/02/14 08:49:30;;;;;;;3.73;1.17;;;;;;;2.43;100.00;98387.16;6206896;28;20894;-58
2024/02/14 08:52:33;;;;;;;2.60;1.60;;;;;;;2.76;100.00;98388.59;6204162;28;20209;-59
2024/02/14 08:55:36;;;;;;;3.10;1.97;;;;;;;2.97;100.00;98374.78;6181680;28;20786;-58
2024/02/14 08:58:38;;;;;;;2.00;1.30;;;;;;;3.36;100.00;98374.63;6174788;28;20200;-57
2024/02/14 09:01:40;;;;;;;2.60;1.47;;;;;;;3.56;100.00;98345.97;6210288;28;20197;-59
2024/02/14 09:04:44;;;;;;;3.60;1.40;;;;;;;4.19;100.00;98378.03;6200680;28;20201;-59
2024/02/14 09:07:46;;;;;;;3.10;1.20;;;;;;;4.51;100.00;98370.69;6178325;28;20660;-59
2024/02/14 09:10:48;;;;;;;1.90;0.70;;;;;;;4.86;94.04;98375.13;6204000;28;20290;-57
2024/02/14 09:13:50;;;;;;;3.00;1.03;;;;;;;5.28;99.23;98381.41;6199061;28;20197;-58
2024/02/14 09:16:53;;;;;;;2.10;0.80;;;;;;;5.67;93.13;98372.16;6205377;28;20597;-57
2024/02/14 09:19:55;;;;;;;2.67;0.80;;;;;;;5.76;94.76;98333.16;6183537;28;20294;-58
2024/02/14 09:22:58;;;;;;;3.07;0.97;;;;;;;6.01;87.11;98367.91;6206978;28;20290;-57
2024/02/14 09:26:01;;;;;;;1.60;0.90;;;;;;;5.96;84.54;98360.56;6211742;28;20206;-57
2024/02/14 09:42:42;;;;;;;1.33;0.90;;;;;;;7.40;84.72;98373.56;6327843;27;20564;-56
2024/02/14 09:45:45;;;;;;;1.40;0.80;;;;;;;7.58;82.90;98365.00;6328064;28;20194;-57
2024/02/14 09:48:48;;;;;;;1.37;0.70;;;;;;;7.75;77.36;98368.84;6332687;28;20272;-56
2024/02/14 09:51:52;;;;;;;1.67;0.60;;;;;;;7.92;71.23;98372.69;6320618;28;20209;-56
2024/02/14 09:54:55;;;;;;;1.10;0.70;;;;;;;8.17;75.85;98369.34;6316838;28;20809;-56
2024/02/14 09:57:58;;;;;;;1.47;0.50;;;;;;;8.42;77.22;98365.03;6323216;28;20205;-58
2024/02/14 10:01:02;;;;;;;3.20;0.90;;;;;;;8.64;72.73;98368.19;6325152;28;20189;-57
2024/02/14 10:04:05;;;;;;;0.60;0.60;;;;;;;8.90;72.84;98366.41;6333073;28;20682;-56
2024/02/14 10:07:08;;;;;;;1.60;0.60;;;;;;;9.09;68.30;98365.47;6328601;28;20245;-56
2024/02/14 10:10:11;;;;;;;1.77;0.70;;;;;;;9.25;64.37;98354.28;6325622;28;20218;-55
2024/02/14 10:13:16;;;;;;;2.47;0.90;;;;;;;9.43;66.99;98358.84;6337126;28;20193;-57
2024/02/14 10:16:18;;;;;;;1.80;0.80;;;;;;;9.17;66.36;98292.63;6323118;28;20199;-58
2024/02/14 10:19:24;;;;;;;1.73;0.93;;;;;;;9.75;65.48;98348.13;6326222;28;20604;-57
2024/02/14 10:22:37;;;;;;;1.47;0.90;;;;;;;9.90;56.54;98355.75;6319115;28;20227;-57
2024/02/14 10:25:39;;;;;;;1.50;0.70;;;;;;;10.05;60.86;98350.91;6335272;28;20222;-57
2024/02/14 10:28:45;;;;;;;1.63;0.70;;;;;;;10.23;59.05;98348.22;6324424;28;20193;-58
2024/02/14 10:31:52;;;;;;;1.43;0.50;;;;;;;10.32;54.83;98336.25;6328770;28;20208;-57
2024/02/14 10:34:54;;;;;;;1.20;0.60;;;;;;;10.29;54.21;98331.38;6332791;28;20206;-58
2024/02/14 10:38:02;;;;;;;1.03;0.80;;;;;;;10.68;54.24;98341.75;6330379;28;20206;-58
2024/02/14 10:41:04;;;;;;;1.43;0.73;;;;;;;10.76;50.10;98336.91;6324123;28;20869;-56
2024/02/14 10:44:11;;;;;;;2.07;1.00;;;;;;;11.04;50.92;98327.50;6307288;28;20204;-58
2024/02/14 10:47:18;;;;;;;2.07;1.13;;;;;;;11.13;51.84;98326.09;6301676;28;20200;-58
2024/02/14 10:50:24;;;;;;;1.97;1.43;;;;;;;11.32;50.78;98334.84;6313695;28;20195;-56
2024/02/14 10:53:29;;;;;;;2.40;0.87;;;;;;;11.13;49.34;98335.97;6309604;28;20192;-57
2024/02/14 10:56:32;;;;;;;5.03;0.97;;;;;;;11.45;53.14;98331.97;6314524;28;20209;-57
2024/02/14 10:59:38;;;;;;;2.43;0.80;;;;;;;11.20;47.54;98326.03;6311058;28;20274;-56
2024/02/14 11:02:41;;;;;;;1.73;1.10;;;;;;;11.06;47.71;98328.06;6308587;28;20696;-56
2024/02/14 11:05:49;;;;;;;2.93;1.03;;;;;;;11.02;49.55;98325.03;6310884;28;20945;-57
2024/02/14 11:08:58;;;;;;;1.40;0.90;;;;;;;10.98;48.96;98323.88;6307864;28;20217;-56
2024/02/14 11:12:02;;;;;;;2.67;0.90;;;;;;;10.98;47.66;98329.19;6316075;28;20705;-56
2024/02/14 11:15:18;;;;;;;3.80;1.00;;;;;;;10.92;49.74;98326.66;6309594;28;20566;-56
2024/02/14 11:18:29;;;;;;;2.93;1.10;;;;;;;10.82;48.29;98325.34;6307715;28;20291;-57
2024/02/14 11:21:35;;;;;;;4.43;1.27;;;;;;;10.92;48.57;98331.97;6303538;28;20667;-56
2024/02/14 11:24:38;;;;;;;1.57;1.00;;;;;;;10.95;48.67;98327.00;6302111;28;20799;-57
2024/02/14 11:27:45;;;;;;;2.73;0.87;;;;;;;10.88;46.50;98322.81;6309850;28;20697;-56
2024/02/14 11:30:48;;;;;;;2.27;1.00;;;;;;;10.88;48.75;98320.94;6329051;28;20217;-54
2024/02/14 11:33:50;;;;;;;2.27;0.83;;;;;;;10.96;47.76;98312.63;6312055;28;20193;-55
2024/02/14 11:36:53;;;;;;;1.37;0.80;;;;;;;10.97;48.43;98316.91;6312129;28;20777;-57
2024/02/14 11:39:58;;;;;;;1.43;0.63;;;;;;;10.98;47.96;98304.41;6302212;28;20225;-57
2024/02/14 11:43:01;;;;;;;0.93;0.70;;;;;;;11.01;49.64;98302.09;6317043;28;20242;-59
2024/02/14 11:46:04;;;;;;;2.13;0.90;;;;;;;10.98;47.66;98293.75;6315646;28;20211;-57
2024/02/14 11:49:06;;;;;;;2.10;0.90;;;;;;;11.15;46.92;98310.72;6304410;28;20565;-56
2024/02/14 11:52:13;;;;;;;4.73;1.00;;;;;;;11.05;48.16;98305.13;6296541;28;20332;-58
2024/02/14 11:55:17;;;;;;;1.70;1.07;;;;;;;11.17;46.43;98310.47;6303929;28;20237;-56
2024/02/14 11:58:19;;;;;;;2.77;0.87;;;;;;;11.20;46.37;98304.69;6311845;28;20276;-55
2024/02/14 12:01:21;;;;;;;1.33;0.60;;;;;;;11.16;45.07;98307.00;6303622;28;20192;-56
2024/02/14 12:04:24;;;;;;;5.57;0.90;;;;;;;10.83;45.41;98300.31;6301842;28;20201;-56
2024/02/14 12:07:26;;;;;;;1.63;0.83;;;;;;;10.80;46.99;98297.31;6308978;28;20267;-55
2024/02/14 12:10:32;;;;;;;1.80;0.80;;;;;;;10.96;45.46;98291.31;6309324;28;20686;-57
2024/02/14 12:13:37;;;;;;;2.77;0.80;;;;;;;10.68;45.52;98289.25;6305271;28;20593;-56
2024/02/14 12:16:40;;;;;;;4.57;1.13;;;;;;;10.72;47.51;98295.75;6302950;28;20201;-56
2024/02/14 12:19:43;;;;;;;2.27;1.07;;;;;;;10.79;48.29;98291.16;6317567;28;20690;-57
2024/02/14 12:22:50;;;;;;;2.43;0.70;;;;;;;10.88;47.78;98291.63;6304625;28;20194;-57
2024/02/14 12:25:52;;;;;;;2.17;0.80;;;;;;;11.14;47.23;98286.94;6303910;28;20222;-56
2024/02/14 12:28:54;;;;;;;1.80;0.60;;;;;;;11.13;47.15;98285.31;6314886;28;20186;-56
2024/02/14 12:32:06;;;;;;;2.70;0.70;;;;;;;11.15;46.39;98277.91;6315546;28;20216;-55
2024/02/14 12:35:08;;;;;;;2.67;0.83;;;;;;;11.06;46.67;98290.75;6311026;28;20564;-56
2024/02/14 12:38:12;;;;;;;1.53;0.70;;;;;;;11.00;46.95;98281.81;6307970;28;20194;-56
2024/02/14 12:41:15;;;;;;;1.00;0.80;;;;;;;10.86;47.47;98277.72;6311152;28;20233;-56
2024/02/14 12:44:17;;;;;;;0.80;0.70;;;;;;;11.02;45.89;98278.91;6301128;28;20197;-56
2024/02/14 12:47:21;;;;;;;1.53;0.70;;;;;;;11.09;47.05;98267.13;6309128;28;20193;-55
2024/02/14 12:50:23;;;;;;;3.07;1.10;;;;;;;11.30;46.08;98270.25;6300223;28;20296;-54
2024/02/14 12:53:26;;;;;;;2.30;1.07;;;;;;;11.39;45.45;98265.38;6315460;28;20221;-56
2024/02/14 12:56:28;;;;;;;1.27;0.87;;;;;;;11.45;46.07;98264.44;6302574;28;20269;-56
2024/02/14 12:59:31;;;;;;;1.53;0.90;;;;;;;11.72;44.52;98259.41;6305347;28;20198;-55
2024/02/14 13:02:33;;;;;;;1.80;0.93;;;;;;;11.69;45.72;98246.56;6308927;28;20326;-56
2024/02/14 13:05:36;;;;;;;3.07;1.10;;;;;;;11.74;48.12;98258.16;6307026;28;20324;-57
2024/02/14 13:08:38;;;;;;;3.50;1.20;;;;;;;11.81;47.18;98229.47;6308534;28;20198;-55
2024/02/14 13:11:42;;;;;;;1.73;0.93;;;;;;;11.73;45.76;98261.88;6307453;28;20246;-56
2024/02/14 13:14:44;;;;;;;1.63;0.83;;;;;;;11.52;45.78;98273.13;6314461;28;20285;-56
2024/02/14 13:17:47;;;;;;;2.73;1.00;;;;;;;11.25;46.00;98251.47;6311595;28;20206;-56
2024/02/14 13:20:57;;;;;;;3.23;1.17;;;;;;;11.34;46.58;98258.88;6306988;28;20186;-55
2024/02/14 13:23:59;;;;;;;3.03;1.00;;;;;;;11.30;45.68;98259.59;6300681;28;20248;-56
2024/02/14 13:27:01;;;;;;;1.47;0.90;;;;;;;11.28;46.54;98259.81;6306219;28;20735;-57
2024/02/14 13:30:04;;;;;;;1.23;0.73;;;;;;;11.17;45.85;98244.59;6302425;28;20197;-56
2024/02/14 13:33:07;;;;;;;1.27;0.73;;;;;;;11.29;48.10;98273.97;6304736;28;20284;-56
2024/02/14 13:36:09;;;;;;;1.67;1.00;;;;;;;10.94;47.44;98274.75;6298642;28;20659;-55
2024/02/14 13:39:12;;;;;;;3.00;1.00;;;;;;;10.54;48.93;98296.66;6295320;28;20343;-55
2024/02/14 13:42:14;;;;;;;2.10;1.10;;;;;;;10.30;50.69;98282.44;6302202;28;20230;-56
2024/02/14 13:45:17;;;;;;;1.70;1.07;;;;;;;10.14;50.31;98283.00;6305140;28;20203;-56
2024/02/14 13:48:20;;;;;;;5.23;0.80;;;;;;;10.03;50.75;98289.88;6308559;28;20247;-56
2024/02/14 13:51:24;;;;;;;1.23;0.80;;;;;;;9.84;50.54;98274.97;6309626;28;20701;-55
2024/02/14 13:54:26;;;;;;;1.13;0.70;;;;;;;9.63;53.00;98283.38;6309156;28;20195;-57
2024/02/14 13:57:29;;;;;;;2.13;1.07;;;;;;;9.52;51.90;98261.00;6307168;28;20219;-56
2024/02/14 14:00:33;;;;;;;3.03;1.30;;;;;;;9.57;54.17;98261.97;6308675;28;20663;-57
2024/02/14 14:03:36;;;;;;;1.47;0.97;;;;;;;9.63;52.42;98262.09;6307119;28;20272;-55
2024/02/14 14:06:39;;;;;;;1.63;1.10;;;;;;;9.55;53.25;98250.69;6300381;28;20239;-56
2024/02/14 14:09:41;;;;;;;2.97;1.13;;;;;;;9.47;53.12;98231.59;6308664;28;20206;-55
2024/02/14 14:12:43;;;;;;;2.20;0.80;;;;;;;9.72;53.03;98253.63;6311305;28;20212;-54
2024/02/14 14:15:45;;;;;;;1.90;0.90;;;;;;;9.97;51.09;98256.19;6299458;28;20251;-56
2024/02/14 14:18:51;;;;;;;1.53;1.07;;;;;;;9.82;51.23;98221.97;6308098;28;20738;-55
2024/02/14 14:21:56;;;;;;;2.33;0.90;;;;;;;10.12;50.11;98253.13;6304917;28;20187;-55
2024/02/14 14:24:59;;;;;;;2.00;1.10;;;;;;;9.98;51.34;98239.16;6306026;28;20285;-56
2024/02/14 14:28:02;;;;;;;1.37;0.70;;;;;;;9.99;50.78;98248.78;6307412;28;20202;-56
2024/02/14 14:31:09;;;;;;;4.67;0.80;;;;;;;10.03;51.63;98251.81;6310939;28;20206;-57
2024/02/14 14:34:14;;;;;;;2.37;0.90;;;;;;;10.01;50.42;98248.56;6316006;28;20208;-55